Time;durP1;ratioP1;P1;durP2;ratioP2;P2;SDS_P1;SDS_P2;PMS_P1;PMS_P2;Temp;Humidity;BMP_temperature;BMP_pressure;BME280_temperature;BME280_humidity;BME280_pressure;Samples;Min_cycle;Max_cycle;Signal;HPM_P1;HPM_P2
2023/09/19 00:00:57;;;;;;;4.15;0.73;;;14.00;99.90;;;;;;5009895;28;20041;-72
2023/09/19 00:03:24;;;;;;;6.15;0.75;;;14.00;99.90;;;;;;5029692;28;20504;-73
2023/09/19 00:05:50;;;;;;;3.92;1.25;;;14.10;99.90;;;;;;5015473;28;20049;-71
2023/09/19 00:08:16;;;;;;;4.75;0.47;;;14.00;99.90;;;;;;5015301;28;20144;-71
2023/09/19 00:10:42;;;;;;;3.33;0.70;;;14.10;99.90;;;;;;5028110;28;20124;-72
2023/09/19 00:13:12;;;;;;;6.90;1.20;;;14.10;99.90;;;;;;5029044;28;20112;-70
2023/09/19 00:15:40;;;;;;;2.50;0.85;;;14.10;99.90;;;;;;5030727;28;20629;-73
2023/09/19 00:18:06;;;;;;;3.30;0.70;;;14.10;99.90;;;;;;5032879;28;20025;-70
2023/09/19 00:20:34;;;;;;;3.13;0.45;;;14.20;99.90;;;;;;5030323;28;20115;-73
2023/09/19 00:23:08;;;;;;;3.33;0.55;;;14.20;99.90;;;;;;5026560;28;20073;-71
2023/09/19 00:25:35;;;;;;;4.60;0.68;;;14.20;99.90;;;;;;5025881;28;20037;-70
2023/09/19 00:28:01;;;;;;;4.28;0.77;;;14.30;99.90;;;;;;5035316;28;20061;-71
2023/09/19 00:30:26;;;;;;;2.38;0.50;;;14.30;99.90;;;;;;5028991;28;20064;-70
2023/09/19 00:32:55;;;;;;;4.35;1.25;;;14.30;99.90;;;;;;5008519;28;20037;-71
2023/09/19 00:35:23;;;;;;;2.60;0.50;;;14.30;99.90;;;;;;5011252;28;20040;-71
2023/09/19 00:37:49;;;;;;;4.53;0.93;;;14.40;99.90;;;;;;5027702;28;20475;-71
2023/09/19 00:40:15;;;;;;;4.25;1.08;;;14.30;99.90;;;;;;5030423;28;20060;-71
2023/09/19 00:42:42;;;;;;;3.83;0.80;;;14.40;99.90;;;;;;5025617;28;20115;-73
2023/09/19 00:45:12;;;;;;;2.03;0.70;;;14.40;99.90;;;;;;5030068;28;20025;-71
2023/09/19 00:47:51;;;;;;;6.53;0.50;;;14.40;99.90;;;;;;5010762;28;20112;-72
2023/09/19 00:50:18;;;;;;;8.15;0.60;;;14.40;99.90;;;;;;5023711;28;20025;-72
2023/09/19 00:52:46;;;;;;;4.28;0.40;;;14.40;99.90;;;;;;5017266;28;20095;-71
2023/09/19 00:55:13;;;;;;;4.85;0.82;;;14.40;99.90;;;;;;5021264;28;20036;-71
2023/09/19 00:57:39;;;;;;;3.97;0.80;;;14.30;99.90;;;;;;5010615;28;20030;-73
2023/09/19 01:00:07;;;;;;;5.15;0.52;;;14.30;99.90;;;;;;5035568;28;20029;-72
2023/09/19 01:02:34;;;;;;;4.28;0.40;;;14.30;99.90;;;;;;5028288;28;20103;-72
2023/09/19 01:05:00;;;;;;;5.18;0.85;;;14.30;99.90;;;;;;5020918;28;21074;-72
2023/09/19 01:07:29;;;;;;;4.03;0.80;;;14.30;99.90;;;;;;5024674;28;20029;-72
2023/09/19 01:09:58;;;;;;;4.10;0.68;;;14.30;99.90;;;;;;5028589;28;20022;-72
2023/09/19 01:12:34;;;;;;;6.28;1.00;;;14.30;99.90;;;;;;5016335;28;20033;-72
2023/09/19 01:15:06;;;;;;;2.85;0.77;;;14.30;99.90;;;;;;5030567;28;20072;-72
2023/09/19 01:17:46;;;;;;;4.05;0.60;;;14.30;99.90;;;;;;5011211;28;20084;-72
2023/09/19 01:20:28;;;;;;;4.03;0.70;;;14.30;99.90;;;;;;5007923;28;20371;-72
2023/09/19 01:23:05;;;;;;;4.57;0.85;;;14.20;99.90;;;;;;5016816;28;20405;-71
2023/09/19 01:26:05;;;;;;;4.35;0.65;;;14.30;99.90;;;;;;5021938;28;20091;-72
2023/09/19 01:28:38;;;;;;;3.83;0.77;;;14.20;99.90;;;;;;5006762;28;20042;-72
2023/09/19 01:31:09;;;;;;;4.28;0.65;;;14.20;99.90;;;;;;5017109;28;20127;-72
2023/09/19 01:34:00;;;;;;;4.38;0.75;;;14.10;99.90;;;;;;5011989;28;20057;-71
2023/09/19 01:36:27;;;;;;;3.42;0.30;;;14.10;99.90;;;;;;5032093;28;20040;-71
2023/09/19 01:38:54;;;;;;;3.30;0.60;;;14.00;99.90;;;;;;5042917;28;20064;-70
2023/09/19 01:41:33;;;;;;;3.22;0.55;;;14.00;99.90;;;;;;5020700;28;20033;-72
2023/09/19 01:44:03;;;;;;;1.75;0.68;;;14.00;99.90;;;;;;5019271;28;20517;-73
2023/09/19 01:46:35;;;;;;;3.65;0.80;;;14.00;99.90;;;;;;5026623;28;20044;-72
2023/09/19 01:49:20;;;;;;;2.60;0.50;;;13.90;99.90;;;;;;5028026;28;20048;-73
2023/09/19 01:51:55;;;;;;;4.75;0.63;;;13.90;99.90;;;;;;5012215;28;20095;-72
2023/09/19 01:54:32;;;;;;;5.82;0.70;;;13.90;99.90;;;;;;5029964;28;20488;-73
2023/09/19 01:57:09;;;;;;;4.55;0.50;;;13.90;99.90;;;;;;5033115;28;20037;-72
2023/09/19 01:59:45;;;;;;;3.08;0.55;;;13.90;99.90;;;;;;5011859;28;20050;-72
2023/09/19 02:02:11;;;;;;;8.77;1.05;;;13.90;99.90;;;;;;5017592;28;20120;-73
2023/09/19 02:04:37;;;;;;;2.80;0.75;;;13.90;99.90;;;;;;5030019;28;20512;-73
2023/09/19 02:07:05;;;;;;;4.95;1.35;;;14.00;99.90;;;;;;5024699;28;20055;-73
2023/09/19 02:09:31;;;;;;;2.95;0.70;;;14.00;99.90;;;;;;5005401;28;20087;-73
2023/09/19 02:11:56;;;;;;;4.70;2.25;;;14.00;99.90;;;;;;5010336;28;20065;-73
2023/09/19 02:14:22;;;;;;;1.92;0.50;;;14.00;99.90;;;;;;5007524;28;20053;-73
2023/09/19 02:16:49;;;;;;;3.80;0.77;;;14.00;99.90;;;;;;5010308;28;20079;-73
2023/09/19 02:19:17;;;;;;;8.75;0.85;;;14.10;99.90;;;;;;5008590;28;20140;-73
2023/09/19 02:21:43;;;;;;;5.38;0.85;;;14.00;99.90;;;;;;5007703;28;20131;-73
2023/09/19 02:24:09;;;;;;;6.80;1.00;;;14.00;99.90;;;;;;5025064;28;20041;-73
2023/09/19 02:26:36;;;;;;;7.72;1.23;;;13.90;99.90;;;;;;5004950;28;20052;-73
2023/09/19 02:29:04;;;;;;;5.45;0.60;;;13.90;99.90;;;;;;5003474;28;20036;-73
2023/09/19 02:31:30;;;;;;;4.82;0.77;;;13.80;99.90;;;;;;5011500;28;20485;-73
2023/09/19 02:33:56;;;;;;;12.50;1.50;;;13.80;99.90;;;;;;5005997;28;20033;-73
2023/09/19 02:36:23;;;;;;;5.63;0.80;;;13.70;99.90;;;;;;5024663;28;20038;-73
2023/09/19 02:38:49;;;;;;;8.13;1.70;;;13.70;99.90;;;;;;5019895;28;20501;-73
2023/09/19 02:41:14;;;;;;;5.07;0.93;;;13.70;99.90;;;;;;5003077;28;20095;-73
2023/09/19 02:43:40;;;;;;;5.10;0.75;;;13.70;99.90;;;;;;5020252;28;20037;-73
2023/09/19 02:46:06;;;;;;;4.13;1.17;;;13.70;99.90;;;;;;5027088;28;20163;-73
2023/09/19 02:48:32;;;;;;;4.50;1.20;;;13.60;99.90;;;;;;5025096;28;20536;-73
2023/09/19 02:50:57;;;;;;;10.32;1.33;;;13.60;99.90;;;;;;5005835;28;20033;-73
2023/09/19 02:53:23;;;;;;;10.75;0.57;;;13.60;99.90;;;;;;5023427;28;20048;-73
2023/09/19 02:55:49;;;;;;;6.90;0.82;;;13.60;99.90;;;;;;5004906;28;20431;-73
2023/09/19 02:58:15;;;;;;;4.60;1.10;;;13.60;99.90;;;;;;5005964;28;20120;-72
2023/09/19 03:00:47;;;;;;;5.32;1.02;;;13.60;99.90;;;;;;5023365;28;20053;-73
2023/09/19 03:03:13;;;;;;;7.63;1.02;;;13.50;99.90;;;;;;5004924;28;20049;-72
2023/09/19 03:05:38;;;;;;;9.48;1.50;;;13.60;99.90;;;;;;5004306;28;20105;-71
2023/09/19 03:08:04;;;;;;;6.30;1.30;;;13.60;99.90;;;;;;5028308;28;20045;-72
2023/09/19 03:10:30;;;;;;;11.57;1.02;;;13.50;99.90;;;;;;5001261;28;20045;-73
2023/09/19 03:12:57;;;;;;;6.35;1.58;;;13.50;99.90;;;;;;5010547;28;20037;-73
2023/09/19 03:15:22;;;;;;;21.65;1.70;;;13.50;99.90;;;;;;5027148;28;20060;-73
2023/09/19 03:17:49;;;;;;;9.98;1.30;;;13.50;99.90;;;;;;5012164;28;20025;-72
2023/09/19 03:20:17;;;;;;;5.30;0.90;;;13.50;99.90;;;;;;5009534;28;20025;-73
2023/09/19 03:22:43;;;;;;;7.57;1.15;;;13.50;99.90;;;;;;5008514;28;20508;-72
2023/09/19 03:25:11;;;;;;;3.90;0.90;;;13.50;99.90;;;;;;5008508;28;20108;-73
2023/09/19 03:27:37;;;;;;;10.25;1.85;;;13.60;99.90;;;;;;5027327;28;20037;-72
2023/09/19 03:30:08;;;;;;;6.97;1.35;;;13.50;99.90;;;;;;5026464;28;20053;-71
2023/09/19 03:32:34;;;;;;;5.80;0.80;;;13.50;99.90;;;;;;5033304;28;20095;-71
2023/09/19 03:35:00;;;;;;;5.07;0.68;;;13.50;99.90;;;;;;5011048;28;20032;-73
2023/09/19 03:37:26;;;;;;;7.40;1.70;;;13.50;99.90;;;;;;5026785;28;20030;-73
2023/09/19 03:39:51;;;;;;;9.50;1.90;;;13.50;99.90;;;;;;5007744;28;20405;-72
2023/09/19 03:42:17;;;;;;;6.95;0.98;;;13.50;99.90;;;;;;5007457;28;20516;-73
2023/09/19 03:44:43;;;;;;;13.48;1.40;;;13.60;99.90;;;;;;5007394;28;20037;-72
2023/09/19 03:47:08;;;;;;;8.93;0.95;;;13.60;99.90;;;;;;5009084;28;20203;-71
2023/09/19 03:49:34;;;;;;;10.95;1.67;;;13.60;99.90;;;;;;5026589;28;20038;-71
2023/09/19 03:51:59;;;;;;;9.27;1.75;;;13.60;99.90;;;;;;5025466;28;20029;-70
2023/09/19 03:54:25;;;;;;;7.20;1.20;;;13.60;99.90;;;;;;5018801;28;20397;-72
2023/09/19 03:56:50;;;;;;;6.00;1.60;;;13.70;99.90;;;;;;5025307;28;20034;-73
2023/09/19 03:59:18;;;;;;;6.57;1.05;;;13.60;99.90;;;;;;5021625;28;20053;-71
2023/09/19 04:01:43;;;;;;;8.75;1.48;;;13.60;99.90;;;;;;5008487;28;20029;-75
2023/09/19 04:04:09;;;;;;;10.10;2.17;;;13.60;99.90;;;;;;5006367;28;20041;-72
2023/09/19 04:06:35;;;;;;;8.32;0.75;;;13.70;99.90;;;;;;5026288;28;20048;-72
2023/09/19 04:09:03;;;;;;;8.13;1.17;;;13.70;99.90;;;;;;5006190;28;21426;-72
2023/09/19 04:11:30;;;;;;;5.68;0.90;;;13.70;99.90;;;;;;5010829;28;20037;-73
2023/09/19 04:13:55;;;;;;;4.53;0.85;;;13.70;99.90;;;;;;5006519;28;20116;-71
2023/09/19 04:16:21;;;;;;;6.05;0.90;;;13.70;99.90;;;;;;5028558;28;20165;-71
2023/09/19 04:18:47;;;;;;;7.45;1.10;;;13.60;99.90;;;;;;5005695;28;20041;-74
2023/09/19 04:21:12;;;;;;;8.10;0.63;;;13.60;99.90;;;;;;5026665;28;20061;-72
2023/09/19 04:23:38;;;;;;;4.85;0.73;;;13.60;99.90;;;;;;5012232;28;20045;-72
2023/09/19 04:26:06;;;;;;;7.93;1.05;;;13.60;99.90;;;;;;5009958;28;20026;-73
2023/09/19 04:28:34;;;;;;;9.77;1.02;;;13.50;99.90;;;;;;5006269;28;20041;-72
2023/09/19 04:31:00;;;;;;;5.93;1.10;;;13.50;99.90;;;;;;5021814;28;20042;-72
2023/09/19 04:33:27;;;;;;;6.93;1.20;;;13.50;99.90;;;;;;5023292;28;20029;-72
2023/09/19 04:35:53;;;;;;;4.78;1.00;;;13.50;99.90;;;;;;5005852;28;20041;-73
2023/09/19 04:38:19;;;;;;;3.58;0.93;;;13.50;99.90;;;;;;5032319;28;20017;-73
2023/09/19 04:40:45;;;;;;;6.20;1.05;;;13.50;99.90;;;;;;5031921;28;20049;-75
2023/09/19 04:43:11;;;;;;;10.07;1.20;;;13.50;99.90;;;;;;5010442;28;20033;-72
2023/09/19 04:45:39;;;;;;;8.93;1.10;;;13.50;99.90;;;;;;5026329;28;20042;-72
2023/09/19 04:48:06;;;;;;;5.63;0.98;;;13.50;99.90;;;;;;5006329;28;20120;-72
2023/09/19 04:50:32;;;;;;;7.10;0.90;;;13.50;99.90;;;;;;5013006;28;20067;-72
2023/09/19 04:52:58;;;;;;;9.05;0.73;;;13.50;99.90;;;;;;5006962;28;20393;-72
2023/09/19 04:55:24;;;;;;;5.35;1.50;;;13.50;99.90;;;;;;5025998;28;20898;-72
2023/09/19 04:57:50;;;;;;;6.43;1.40;;;13.50;99.90;;;;;;5022821;28;20034;-72
2023/09/19 05:00:24;;;;;;;5.25;1.20;;;13.50;99.90;;;;;;5024301;28;20040;-72
2023/09/19 05:02:51;;;;;;;5.75;1.20;;;13.50;99.90;;;;;;5007165;28;20033;-73
2023/09/19 05:05:18;;;;;;;9.02;1.77;;;13.50;99.90;;;;;;5009913;28;20116;-73
2023/09/19 05:07:44;;;;;;;9.57;1.65;;;13.50;99.90;;;;;;5012258;28;20509;-72
2023/09/19 05:10:11;;;;;;;4.90;1.98;;;13.50;99.90;;;;;;5010451;28;20125;-73
2023/09/19 05:12:37;;;;;;;10.48;1.45;;;13.50;99.90;;;;;;5010660;28;20025;-73
2023/09/19 05:15:03;;;;;;;9.75;1.48;;;13.50;99.90;;;;;;5024812;28;20033;-71
2023/09/19 05:17:30;;;;;;;8.40;1.10;;;13.50;99.90;;;;;;5027058;28;20051;-71
2023/09/19 05:19:55;;;;;;;8.45;2.22;;;13.40;99.90;;;;;;5007222;28;20095;-71
2023/09/19 05:22:21;;;;;;;6.75;1.58;;;13.40;99.90;;;;;;5023641;28;20030;-70
2023/09/19 05:24:49;;;;;;;8.32;1.70;;;13.40;99.90;;;;;;5005946;28;20464;-74
2023/09/19 05:27:16;;;;;;;11.68;1.77;;;13.50;99.90;;;;;;5022461;28;20471;-71
2023/09/19 05:29:42;;;;;;;6.47;1.10;;;13.50;99.90;;;;;;5006307;28;20026;-74
2023/09/19 05:32:09;;;;;;;8.60;1.33;;;13.50;99.90;;;;;;5029464;28;20132;-72
2023/09/19 05:34:34;;;;;;;11.80;1.58;;;13.50;99.90;;;;;;5008941;28;20095;-71
2023/09/19 05:37:00;;;;;;;6.65;0.95;;;13.50;99.90;;;;;;5020726;28;20057;-71
2023/09/19 05:39:25;;;;;;;9.77;1.02;;;13.60;99.90;;;;;;5010222;28;20503;-72
2023/09/19 05:41:51;;;;;;;5.60;1.27;;;13.60;99.90;;;;;;5022959;28;20025;-71
2023/09/19 05:44:16;;;;;;;6.82;1.33;;;13.70;99.90;;;;;;5030485;28;20036;-73
2023/09/19 05:46:42;;;;;;;8.23;1.30;;;13.70;99.90;;;;;;5025642;28;20037;-73
2023/09/19 05:49:08;;;;;;;5.13;1.02;;;13.80;99.90;;;;;;5019781;28;20957;-73
2023/09/19 05:51:35;;;;;;;7.28;0.90;;;13.80;99.90;;;;;;5009779;28;20041;-72
2023/09/19 05:54:00;;;;;;;9.90;1.23;;;13.80;99.90;;;;;;5002317;28;20030;-73
2023/09/19 05:56:27;;;;;;;8.32;1.20;;;13.80;99.90;;;;;;5008176;28;20083;-73
2023/09/19 05:58:53;;;;;;;6.43;1.10;;;13.80;99.90;;;;;;5025299;28;20041;-72
2023/09/19 06:01:18;;;;;;;10.05;1.75;;;13.80;99.90;;;;;;5020086;28;20034;-73
2023/09/19 06:03:44;;;;;;;12.57;1.35;;;13.90;99.90;;;;;;5021733;28;20064;-73
2023/09/19 06:06:10;;;;;;;5.15;1.08;;;13.90;99.90;;;;;;5018981;28;20046;-73
2023/09/19 06:08:35;;;;;;;7.38;1.95;;;13.80;99.90;;;;;;5007781;28;20038;-73
2023/09/19 06:11:02;;;;;;;8.95;1.77;;;13.80;99.90;;;;;;5024257;28;20069;-72
2023/09/19 06:13:33;;;;;;;9.93;1.40;;;13.80;99.90;;;;;;5025972;28;20573;-72
2023/09/19 06:16:02;;;;;;;8.05;1.05;;;13.90;99.90;;;;;;5018518;28;20034;-72
2023/09/19 06:18:29;;;;;;;12.27;1.20;;;13.90;99.90;;;;;;5021041;28;20038;-72
2023/09/19 06:20:55;;;;;;;9.10;1.02;;;14.00;99.90;;;;;;5006153;28;20103;-72
2023/09/19 06:23:21;;;;;;;5.95;1.20;;;14.00;99.90;;;;;;5003495;28;20490;-73
2023/09/19 06:25:46;;;;;;;6.25;1.30;;;14.10;99.90;;;;;;5002707;28;20037;-72
2023/09/19 06:28:12;;;;;;;4.00;1.25;;;14.10;99.90;;;;;;5003261;28;20397;-73
2023/09/19 06:30:41;;;;;;;6.05;1.27;;;14.20;99.90;;;;;;5010917;28;20090;-72
2023/09/19 06:33:07;;;;;;;6.65;1.33;;;14.20;99.90;;;;;;5017189;28;20022;-72
2023/09/19 06:35:33;;;;;;;6.78;1.25;;;14.30;99.90;;;;;;5006748;28;20561;-72
2023/09/19 06:38:02;;;;;;;7.03;1.35;;;14.30;99.90;;;;;;5002183;28;20056;-72
2023/09/19 06:40:30;;;;;;;12.63;1.70;;;14.40;99.90;;;;;;5024668;28;20087;-73
2023/09/19 06:42:56;;;;;;;6.18;0.77;;;14.40;99.90;;;;;;5000052;28;20504;-73
2023/09/19 06:45:22;;;;;;;4.72;0.93;;;14.50;99.90;;;;;;5002997;28;20033;-72
2023/09/19 06:47:49;;;;;;;9.73;2.17;;;14.50;99.90;;;;;;5019344;28;20045;-73
2023/09/19 06:50:18;;;;;;;10.18;1.67;;;14.50;99.90;;;;;;5002059;28;20119;-72
2023/09/19 06:52:45;;;;;;;13.80;2.40;;;14.50;99.90;;;;;;5006404;28;20041;-71
2023/09/19 06:55:13;;;;;;;7.28;1.13;;;14.50;99.90;;;;;;5020303;28;20034;-71
2023/09/19 06:57:40;;;;;;;11.63;1.00;;;14.60;99.90;;;;;;5003586;28;20031;-71
2023/09/19 07:00:15;;;;;;;5.57;1.27;;;14.60;99.90;;;;;;5008275;28;20037;-73
2023/09/19 07:02:57;;;;;;;4.72;1.13;;;14.70;99.90;;;;;;5031729;28;20037;-73
2023/09/19 07:05:22;;;;;;;4.30;0.85;;;14.80;99.90;;;;;;5005493;28;20034;-72
2023/09/19 07:07:48;;;;;;;8.90;1.95;;;14.80;99.90;;;;;;5017208;28;20033;-72
2023/09/19 07:10:14;;;;;;;10.40;2.25;;;14.80;99.90;;;;;;5031041;28;20140;-73
2023/09/19 07:12:41;;;;;;;7.85;1.02;;;14.90;99.90;;;;;;5023870;28;20374;-71
2023/09/19 07:15:07;;;;;;;11.18;1.75;;;15.00;99.90;;;;;;5007856;28;20067;-72
2023/09/19 07:17:33;;;;;;;7.50;1.30;;;15.10;99.90;;;;;;5005719;28;20493;-72
2023/09/19 07:19:59;;;;;;;5.97;1.10;;;15.10;99.90;;;;;;5023269;28;20044;-72
2023/09/19 07:22:26;;;;;;;5.07;1.65;;;15.30;99.90;;;;;;5026359;28;20026;-72
2023/09/19 07:24:53;;;;;;;6.55;1.00;;;15.20;99.90;;;;;;5011892;28;20478;-73
2023/09/19 07:27:18;;;;;;;11.20;1.42;;;15.20;99.90;;;;;;5026119;28;20119;-72
2023/09/19 07:29:45;;;;;;;10.27;1.63;;;15.30;99.90;;;;;;5008112;28;20072;-72
2023/09/19 07:32:11;;;;;;;8.75;1.10;;;15.30;99.90;;;;;;5037597;28;20039;-72
2023/09/19 07:34:38;;;;;;;9.90;1.60;;;15.30;99.90;;;;;;5026200;28;20076;-74
2023/09/19 07:37:04;;;;;;;7.47;1.00;;;15.40;99.90;;;;;;5030253;28;20037;-71
2023/09/19 07:39:30;;;;;;;5.82;1.30;;;15.50;99.90;;;;;;5033130;28;20800;-70
2023/09/19 07:41:56;;;;;;;3.78;1.13;;;15.50;99.90;;;;;;5026578;28;20056;-72
2023/09/19 07:44:22;;;;;;;6.70;1.95;;;15.60;99.90;;;;;;5030301;28;20029;-72
2023/09/19 07:46:50;;;;;;;9.93;1.17;;;15.70;99.90;;;;;;5007148;28;20067;-74
2023/09/19 07:49:17;;;;;;;5.20;0.82;;;15.80;99.90;;;;;;5009648;28;20042;-72
2023/09/19 07:51:46;;;;;;;6.43;1.60;;;15.80;99.90;;;;;;5021294;28;20052;-75
2023/09/19 07:54:12;;;;;;;11.63;0.98;;;15.80;99.90;;;;;;5007630;28;20034;-72
2023/09/19 07:56:38;;;;;;;11.32;1.35;;;15.80;99.90;;;;;;5024639;28;20120;-72
2023/09/19 07:59:03;;;;;;;6.60;1.10;;;15.90;99.90;;;;;;5007544;28;20178;-71
2023/09/19 08:01:29;;;;;;;9.88;1.30;;;16.00;99.90;;;;;;5012883;28;20037;-71
2023/09/19 08:03:55;;;;;;;7.50;0.98;;;16.10;99.90;;;;;;5025074;28;20033;-72
2023/09/19 08:06:20;;;;;;;6.32;1.75;;;16.10;99.90;;;;;;5005933;28;20044;-73
2023/09/19 08:08:46;;;;;;;10.38;1.50;;;16.10;99.90;;;;;;5007247;28;20033;-71
2023/09/19 08:11:12;;;;;;;7.15;1.33;;;16.20;99.90;;;;;;5027300;28;20041;-70
2023/09/19 08:13:45;;;;;;;12.90;1.33;;;16.30;99.90;;;;;;5033086;28;20114;-70
2023/09/19 08:16:11;;;;;;;10.63;1.58;;;16.30;99.90;;;;;;5028285;28;20052;-71
2023/09/19 08:18:39;;;;;;;9.93;1.48;;;16.40;99.90;;;;;;5011295;28;20034;-71
2023/09/19 08:21:10;;;;;;;11.50;1.10;;;16.50;99.90;;;;;;5017139;28;20472;-71
2023/09/19 08:23:35;;;;;;;;;;;16.50;99.90;;;;;;5030032;28;20038;-72
2023/09/19 08:26:07;;;;;;;6.30;1.77;;;16.60;99.90;;;;;;5036503;28;19943;-73
2023/09/19 08:28:33;;;;;;;7.45;1.30;;;16.70;99.90;;;;;;5013091;28;20538;-70
2023/09/19 08:31:06;;;;;;;12.18;1.48;;;16.60;99.90;;;;;;5029876;28;20393;-72
2023/09/19 08:33:33;;;;;;;12.00;1.75;;;16.60;99.90;;;;;;5017306;28;20057;-71
2023/09/19 08:35:59;;;;;;;6.28;1.48;;;16.70;99.90;;;;;;5027171;28;20396;-72
2023/09/19 08:38:29;;;;;;;10.50;1.48;;;16.80;99.90;;;;;;5010397;28;20591;-72
2023/09/19 08:40:59;;;;;;;11.15;1.60;;;16.80;99.90;;;;;;5008086;28;20563;-72
2023/09/19 08:43:25;;;;;;;12.20;1.50;;;16.80;99.90;;;;;;5010270;28;20497;-72
2023/09/19 08:45:58;;;;;;;8.40;1.67;;;16.70;99.90;;;;;;5024055;28;20041;-71
2023/09/19 08:48:28;;;;;;;9.57;1.48;;;16.90;99.90;;;;;;5007332;28;20045;-72
2023/09/19 08:51:03;;;;;;;11.60;1.05;;;16.90;99.90;;;;;;5024672;28;20029;-72
2023/09/19 08:53:29;;;;;;;6.80;1.73;;;16.90;99.90;;;;;;5028253;28;20479;-72
2023/09/19 08:55:57;;;;;;;13.25;1.55;;;17.00;99.90;;;;;;5033947;28;20034;-73
2023/09/19 08:58:29;;;;;;;10.63;1.95;;;17.10;99.90;;;;;;5028114;28;20116;-72
2023/09/19 09:00:56;;;;;;;5.68;1.02;;;17.10;99.90;;;;;;5029214;28;20481;-72
2023/09/19 09:03:23;;;;;;;8.55;0.95;;;17.20;99.90;;;;;;5027841;28;20041;-72
2023/09/19 09:05:50;;;;;;;9.27;1.10;;;17.30;99.90;;;;;;5026673;28;20557;-72
2023/09/19 09:08:20;;;;;;;14.52;2.45;;;17.40;99.90;;;;;;5027502;28;20040;-73
2023/09/19 09:10:45;;;;;;;7.72;1.27;;;17.60;99.90;;;;;;5026711;28;20073;-73
2023/09/19 09:13:14;;;;;;;17.40;1.63;;;17.70;99.90;;;;;;5006412;28;20537;-73
2023/09/19 09:15:41;;;;;;;6.90;1.30;;;17.70;99.90;;;;;;5036484;28;20216;-72
2023/09/19 09:18:07;;;;;;;12.40;1.40;;;17.90;99.90;;;;;;5026483;28;20037;-72
2023/09/19 09:20:32;;;;;;;8.13;1.15;;;17.90;99.90;;;;;;5032645;28;20120;-72
2023/09/19 09:23:03;;;;;;;6.78;1.48;;;17.90;99.90;;;;;;5021809;28;20030;-72
2023/09/19 09:26:02;;;;;;;9.10;1.33;;;17.90;99.90;;;;;;5005028;28;20080;-72
2023/09/19 09:28:33;;;;;;;7.40;1.50;;;17.80;99.90;;;;;;5004846;28;20038;-72
2023/09/19 09:30:59;;;;;;;8.13;1.52;;;17.90;99.90;;;;;;5006510;28;20132;-71
2023/09/19 09:33:25;;;;;;;14.68;1.50;;;17.90;99.90;;;;;;5001675;28;20030;-70
2023/09/19 09:36:02;;;;;;;7.15;1.30;;;17.90;99.90;;;;;;5001361;28;20466;-71
2023/09/19 09:38:50;;;;;;;7.40;1.80;;;18.00;99.90;;;;;;5001506;28;20057;-72
2023/09/19 09:41:27;;;;;;;11.75;1.92;;;18.20;99.90;;;;;;5003914;28;20038;-73
2023/09/19 09:43:53;;;;;;;7.43;0.80;;;18.30;99.90;;;;;;5002162;28;20057;-70
2023/09/19 09:52:16;;;;;;;9.10;1.05;;;18.20;99.90;;;;;;4933470;28;20498;-72
2023/09/19 09:55:08;;;;;;;9.48;1.10;;;18.10;99.90;;;;;;4995660;28;20088;-72
2023/09/19 09:57:34;;;;;;;5.22;1.05;;;18.10;99.90;;;;;;5012941;28;20533;-72
2023/09/19 10:02:43;;;;;;;8.20;1.80;;;18.30;99.90;;;;;;5021517;28;20048;-72
2023/09/19 10:05:34;;;;;;;7.25;0.98;;;18.20;99.90;;;;;;5020368;28;20034;-72
2023/09/19 10:08:12;;;;;;;8.90;1.20;;;18.10;99.90;;;;;;5020731;28;20046;-72
2023/09/19 10:13:12;;;;;;;12.05;2.05;;;18.30;99.90;;;;;;5021996;28;20049;-72
2023/09/19 10:15:38;;;;;;;7.35;1.15;;;18.50;99.90;;;;;;5022776;28;20046;-72
2023/09/19 10:18:10;;;;;;;9.52;1.50;;;18.60;99.90;;;;;;5023067;28;21654;-71
2023/09/19 10:20:38;;;;;;;7.25;0.82;;;18.60;99.90;;;;;;5000924;28;20042;-72
2023/09/19 10:23:10;;;;;;;4.10;1.17;;;18.70;99.90;;;;;;5017294;28;20520;-72
2023/09/19 10:25:37;;;;;;;7.30;0.90;;;18.60;99.90;;;;;;5014693;28;20034;-72
2023/09/19 10:28:13;;;;;;;6.05;1.20;;;18.70;99.90;;;;;;5023458;28;20029;-72
2023/09/19 10:30:44;;;;;;;5.35;0.95;;;18.80;99.90;;;;;;5024313;28;20030;-72
2023/09/19 10:33:11;;;;;;;8.25;0.88;;;18.80;99.90;;;;;;5008247;28;20022;-72
2023/09/19 10:35:43;;;;;;;7.22;1.00;;;18.90;99.90;;;;;;5021936;28;20034;-72
2023/09/19 10:38:11;;;;;;;14.43;2.67;;;18.90;99.90;;;;;;5027126;28;20034;-72
2023/09/19 10:40:40;;;;;;;9.82;1.02;;;19.10;99.90;;;;;;5020343;28;20030;-72
2023/09/19 10:43:06;;;;;;;10.70;1.42;;;19.10;99.90;;;;;;5023182;28;20105;-71
2023/09/19 10:45:34;;;;;;;5.03;1.10;;;19.20;99.90;;;;;;5024618;28;20113;-71
2023/09/19 10:48:03;;;;;;;4.53;0.93;;;19.20;99.90;;;;;;5020640;28;20040;-72
2023/09/19 10:51:12;;;;;;;5.07;0.70;;;19.20;99.90;;;;;;5005279;28;20073;-72
2023/09/19 10:53:51;;;;;;;12.57;1.00;;;19.30;99.90;;;;;;5021978;28;20629;-71
2023/09/19 10:56:23;;;;;;;8.38;0.85;;;19.30;99.90;;;;;;5018033;28;20117;-71
2023/09/19 10:58:49;;;;;;;6.50;0.50;;;19.40;99.90;;;;;;5006156;28;20033;-71
2023/09/19 11:01:15;;;;;;;3.00;0.40;;;19.60;99.90;;;;;;5020268;28;20030;-71
2023/09/19 11:03:44;;;;;;;13.13;1.20;;;19.60;99.90;;;;;;5017455;28;20034;-72
2023/09/19 11:06:16;;;;;;;5.45;0.70;;;19.60;99.90;;;;;;5002557;28;20104;-73
2023/09/19 11:08:59;;;;;;;6.22;1.40;;;19.60;99.90;;;;;;5030405;28;20044;-73
2023/09/19 11:11:41;;;;;;;3.53;0.50;;;19.50;99.90;;;;;;5005074;28;20045;-70
2023/09/19 11:14:24;;;;;;;8.90;1.17;;;19.50;99.90;;;;;;5010452;28;20114;-71
2023/09/19 11:17:11;;;;;;;3.70;0.60;;;19.40;99.90;;;;;;5006291;28;20041;-73
2023/09/19 11:22:50;;;;;;;5.53;0.82;;;19.20;99.90;;;;;;5003850;28;20437;-72
2023/09/19 11:25:31;;;;;;;12.52;1.10;;;19.10;99.90;;;;;;5004957;28;20485;-71
2023/09/19 11:28:05;;;;;;;4.25;0.50;;;19.10;99.90;;;;;;5013406;28;20057;-72
2023/09/19 11:30:36;;;;;;;6.07;0.60;;;19.10;99.90;;;;;;5004258;28;20042;-71
2023/09/19 11:33:46;;;;;;;3.75;0.80;;;19.20;99.90;;;;;;4998572;28;20390;-72
2023/09/19 11:36:16;;;;;;;3.38;0.30;;;19.20;99.90;;;;;;4937279;28;20061;-72
2023/09/19 11:38:50;;;;;;;5.15;0.60;;;19.10;99.90;;;;;;4948727;28;20063;-72
2023/09/19 11:41:22;;;;;;;3.78;1.05;;;19.10;99.90;;;;;;4976746;28;20746;-72
2023/09/19 11:43:51;;;;;;;2.95;0.75;;;19.10;99.90;;;;;;5012912;28;20041;-72
2023/09/19 11:46:21;;;;;;;10.90;1.10;;;19.10;99.90;;;;;;5010899;28;20204;-71
2023/09/19 11:48:50;;;;;;;;;;;19.10;99.90;;;;;;5017955;28;20076;-72
2023/09/19 11:51:24;;;;;;;3.70;0.30;;;19.10;99.90;;;;;;5007725;28;19917;-72
2023/09/19 11:53:51;;;;;;;4.40;0.82;;;19.10;99.90;;;;;;5012014;28;20042;-72
2023/09/19 11:56:23;;;;;;;10.43;0.57;;;19.10;99.90;;;;;;5015709;28;20091;-72
2023/09/19 11:58:55;;;;;;;4.15;0.85;;;19.10;99.90;;;;;;5013334;28;20038;-73
2023/09/19 12:01:24;;;;;;;3.88;0.40;;;19.10;99.90;;;;;;5014550;28;20436;-71
2023/09/19 12:03:53;;;;;;;4.78;0.77;;;19.00;99.90;;;;;;5022871;28;20052;-71
2023/09/19 12:06:21;;;;;;;9.30;0.82;;;18.90;99.90;;;;;;5007327;28;20046;-70
2023/09/19 12:08:48;;;;;;;4.88;0.60;;;18.90;99.90;;;;;;5019854;28;20497;-71
2023/09/19 12:11:15;;;;;;;8.70;0.75;;;18.90;99.90;;;;;;5018270;28;20029;-70
2023/09/19 12:13:44;;;;;;;2.28;0.47;;;18.80;99.90;;;;;;5016754;28;20029;-71
2023/09/19 12:16:22;;;;;;;22.15;0.95;;;18.80;99.90;;;;;;5012294;28;20041;-72
2023/09/19 12:18:50;;;;;;;5.18;0.45;;;18.80;99.90;;;;;;5022668;28;20033;-73
2023/09/19 12:21:31;;;;;;;0.77;0.30;;;18.70;99.90;;;;;;5021597;28;20199;-72
2023/09/19 12:24:06;;;;;;;2.03;0.60;;;18.70;99.90;;;;;;5020995;28;20034;-72
2023/09/19 12:26:43;;;;;;;6.22;0.55;;;18.80;99.90;;;;;;5028385;28;20029;-70
2023/09/19 12:29:20;;;;;;;2.80;0.70;;;18.80;99.90;;;;;;5010212;28;20041;-73
2023/09/19 12:31:57;;;;;;;4.15;0.40;;;18.90;99.90;;;;;;5018951;28;20034;-73
2023/09/19 12:34:27;;;;;;;2.28;0.65;;;18.80;99.90;;;;;;5009028;28;20046;-73
2023/09/19 12:37:11;;;;;;;;;;;18.80;99.90;;;;;;5012409;28;20120;-71
2023/09/19 12:39:42;;;;;;;4.43;0.60;;;18.80;99.90;;;;;;5005038;28;19913;-71
2023/09/19 12:42:15;;;;;;;5.05;0.70;;;18.90;99.90;;;;;;5001072;28;20041;-71
2023/09/19 12:44:45;;;;;;;5.07;0.90;;;19.10;99.90;;;;;;5006496;28;20077;-71
2023/09/19 12:47:23;;;;;;;4.78;0.40;;;19.20;99.90;;;;;;5002081;28;20057;-71
2023/09/19 12:50:18;;;;;;;2.63;0.40;;;19.20;99.90;;;;;;5005035;28;20504;-74
2023/09/19 12:52:48;;;;;;;7.47;1.27;;;19.20;99.90;;;;;;5007288;28;20144;-73
2023/09/19 12:55:20;;;;;;;;;;;19.10;99.90;;;;;;5010477;28;20160;-72
2023/09/19 12:57:59;;;;;;;6.72;0.45;;;19.10;99.90;;;;;;5010446;28;19925;-73
2023/09/19 13:00:51;;;;;;;1.40;0.32;;;19.10;99.90;;;;;;5008406;28;20041;-72
2023/09/19 13:03:24;;;;;;;3.50;0.40;;;19.10;99.90;;;;;;5008505;28;20048;-73
2023/09/19 13:05:55;;;;;;;8.13;0.50;;;19.00;99.90;;;;;;5005219;28;20536;-71
2023/09/19 13:08:26;;;;;;;5.00;0.82;;;19.10;99.90;;;;;;4997595;28;20034;-71
2023/09/19 13:11:10;;;;;;;2.10;0.35;;;19.10;99.90;;;;;;5003093;28;20030;-71